sensor_id;sensor_type;location;lat;lon;timestamp;temperature;humidity
4840;DHT22;2434;48.486;7.964;2022-09-30T00:01:47;12.60;77.40
4840;DHT22;2434;48.486;7.964;2022-09-30T00:04:18;12.60;77.70
4840;DHT22;2434;48.486;7.964;2022-09-30T00:06:47;12.20;79.40
4840;DHT22;2434;48.486;7.964;2022-09-30T00:09:16;12.00;81.70
4840;DHT22;2434;48.486;7.964;2022-09-30T00:11:44;12.20;80.00
4840;DHT22;2434;48.486;7.964;2022-09-30T00:14:16;12.30;79.20
4840;DHT22;2434;48.486;7.964;2022-09-30T00:16:47;12.40;78.70
4840;DHT22;2434;48.486;7.964;2022-09-30T00:19:16;12.30;78.50
4840;DHT22;2434;48.486;7.964;2022-09-30T00:21:44;12.40;78.10
4840;DHT22;2434;48.486;7.964;2022-09-30T00:24:12;12.40;77.80
4840;DHT22;2434;48.486;7.964;2022-09-30T00:26:41;12.50;78.50
4840;DHT22;2434;48.486;7.964;2022-09-30T00:29:09;12.50;77.60
4840;DHT22;2434;48.486;7.964;2022-09-30T00:31:38;12.50;77.50
4840;DHT22;2434;48.486;7.964;2022-09-30T00:34:08;12.20;78.30
4840;DHT22;2434;48.486;7.964;2022-09-30T00:36:41;11.80;81.50
4840;DHT22;2434;48.486;7.964;2022-09-30T00:39:13;11.90;81.40
4840;DHT22;2434;48.486;7.964;2022-09-30T00:41:42;12.00;79.30
4840;DHT22;2434;48.486;7.964;2022-09-30T00:44:44;12.00;79.30
4840;DHT22;2434;48.486;7.964;2022-09-30T00:47:41;12.20;78.90
4840;DHT22;2434;48.486;7.964;2022-09-30T00:50:31;12.20;79.20
4840;DHT22;2434;48.486;7.964;2022-09-30T00:53:04;12.20;78.90
4840;DHT22;2434;48.486;7.964;2022-09-30T00:55:41;12.30;79.00
4840;DHT22;2434;48.486;7.964;2022-09-30T00:58:18;12.20;78.80
4840;DHT22;2434;48.486;7.964;2022-09-30T01:00:48;12.20;79.30
4840;DHT22;2434;48.486;7.964;2022-09-30T01:03:19;12.20;79.10
4840;DHT22;2434;48.486;7.964;2022-09-30T01:05:50;12.20;79.30
4840;DHT22;2434;48.486;7.964;2022-09-30T01:08:19;12.20;79.60
4840;DHT22;2434;48.486;7.964;2022-09-30T01:10:48;12.20;79.40
4840;DHT22;2434;48.486;7.964;2022-09-30T01:13:17;12.20;79.60
4840;DHT22;2434;48.486;7.964;2022-09-30T01:16:04;12.20;79.60
4840;DHT22;2434;48.486;7.964;2022-09-30T01:18:43;12.10;79.30
4840;DHT22;2434;48.486;7.964;2022-09-30T01:21:56;12.20;79.40
4840;DHT22;2434;48.486;7.964;2022-09-30T01:27:40;12.10;79.80
4840;DHT22;2434;48.486;7.964;2022-09-30T01:30:13;12.10;81.00
4840;DHT22;2434;48.486;7.964;2022-09-30T01:33:05;12.10;80.60
4840;DHT22;2434;48.486;7.964;2022-09-30T01:36:00;12.00;80.80
4840;DHT22;2434;48.486;7.964;2022-09-30T01:38:39;12.00;80.70
4840;DHT22;2434;48.486;7.964;2022-09-30T01:41:14;12.10;80.80
4840;DHT22;2434;48.486;7.964;2022-09-30T01:43:47;12.00;81.40
4840;DHT22;2434;48.486;7.964;2022-09-30T01:46:22;12.00;81.90
4840;DHT22;2434;48.486;7.964;2022-09-30T01:48:59;11.80;82.90
4840;DHT22;2434;48.486;7.964;2022-09-30T01:51:36;11.90;82.50
4840;DHT22;2434;48.486;7.964;2022-09-30T01:54:12;12.00;81.80
4840;DHT22;2434;48.486;7.964;2022-09-30T01:56:43;12.00;81.20
4840;DHT22;2434;48.486;7.964;2022-09-30T01:59:16;11.40;84.90
4840;DHT22;2434;48.486;7.964;2022-09-30T02:01:49;11.50;87.30
4840;DHT22;2434;48.486;7.964;2022-09-30T02:04:23;11.50;85.20
4840;DHT22;2434;48.486;7.964;2022-09-30T02:06:57;11.50;85.30
4840;DHT22;2434;48.486;7.964;2022-09-30T02:09:29;11.80;83.30
4840;DHT22;2434;48.486;7.964;2022-09-30T02:12:02;11.90;82.30
4840;DHT22;2434;48.486;7.964;2022-09-30T02:14:36;11.30;84.80
4840;DHT22;2434;48.486;7.964;2022-09-30T02:17:09;10.70;89.30
4840;DHT22;2434;48.486;7.964;2022-09-30T02:19:45;10.50;92.10
4840;DHT22;2434;48.486;7.964;2022-09-30T02:22:16;10.30;93.50
4840;DHT22;2434;48.486;7.964;2022-09-30T02:24:49;10.30;94.30
4840;DHT22;2434;48.486;7.964;2022-09-30T02:27:22;10.60;93.50
4840;DHT22;2434;48.486;7.964;2022-09-30T02:29:56;10.60;91.70
4840;DHT22;2434;48.486;7.964;2022-09-30T02:32:29;10.70;91.50
4840;DHT22;2434;48.486;7.964;2022-09-30T02:35:02;10.90;91.10
4840;DHT22;2434;48.486;7.964;2022-09-30T02:37:34;11.20;88.00
4840;DHT22;2434;48.486;7.964;2022-09-30T02:40:06;11.50;86.20
4840;DHT22;2434;48.486;7.964;2022-09-30T02:42:36;11.60;84.40
4840;DHT22;2434;48.486;7.964;2022-09-30T02:45:09;11.70;82.50
4840;DHT22;2434;48.486;7.964;2022-09-30T02:47:48;11.80;81.30
4840;DHT22;2434;48.486;7.964;2022-09-30T02:50:29;11.90;81.00
4840;DHT22;2434;48.486;7.964;2022-09-30T02:53:11;11.90;82.20
4840;DHT22;2434;48.486;7.964;2022-09-30T02:55:50;12.00;81.70
4840;DHT22;2434;48.486;7.964;2022-09-30T02:58:21;12.00;81.30
4840;DHT22;2434;48.486;7.964;2022-09-30T03:00:53;12.00;81.00
4840;DHT22;2434;48.486;7.964;2022-09-30T03:03:24;11.90;81.00
4840;DHT22;2434;48.486;7.964;2022-09-30T03:05:55;11.60;82.90
4840;DHT22;2434;48.486;7.964;2022-09-30T03:08:25;11.70;83.50
4840;DHT22;2434;48.486;7.964;2022-09-30T03:10:53;11.80;82.20
4840;DHT22;2434;48.486;7.964;2022-09-30T03:13:36;11.50;83.40
4840;DHT22;2434;48.486;7.964;2022-09-30T03:16:14;11.00;87.10
4840;DHT22;2434;48.486;7.964;2022-09-30T03:18:56;10.80;90.60
4840;DHT22;2434;48.486;7.964;2022-09-30T03:21:45;10.90;89.70
4840;DHT22;2434;48.486;7.964;2022-09-30T03:24:31;11.10;87.40
4840;DHT22;2434;48.486;7.964;2022-09-30T03:27:08;11.30;86.50
4840;DHT22;2434;48.486;7.964;2022-09-30T03:29:45;11.40;85.90
4840;DHT22;2434;48.486;7.964;2022-09-30T03:32:25;11.60;84.10
4840;DHT22;2434;48.486;7.964;2022-09-30T03:35:03;11.70;83.40
4840;DHT22;2434;48.486;7.964;2022-09-30T03:37:40;11.80;82.20
4840;DHT22;2434;48.486;7.964;2022-09-30T03:40:16;11.80;83.00
4840;DHT22;2434;48.486;7.964;2022-09-30T03:42:53;11.90;82.30
4840;DHT22;2434;48.486;7.964;2022-09-30T03:45:27;11.90;81.90
4840;DHT22;2434;48.486;7.964;2022-09-30T03:48:02;11.90;81.30
4840;DHT22;2434;48.486;7.964;2022-09-30T03:50:32;11.90;80.60
4840;DHT22;2434;48.486;7.964;2022-09-30T03:53:08;12.00;81.00
4840;DHT22;2434;48.486;7.964;2022-09-30T03:55:44;11.90;79.60
4840;DHT22;2434;48.486;7.964;2022-09-30T03:58:15;11.90;79.20
4840;DHT22;2434;48.486;7.964;2022-09-30T04:00:47;11.90;79.20
4840;DHT22;2434;48.486;7.964;2022-09-30T04:03:17;11.90;79.90
4840;DHT22;2434;48.486;7.964;2022-09-30T04:05:47;11.90;81.00
4840;DHT22;2434;48.486;7.964;2022-09-30T04:08:16;11.90;81.50
4840;DHT22;2434;48.486;7.964;2022-09-30T04:10:44;11.90;80.70
4840;DHT22;2434;48.486;7.964;2022-09-30T04:13:13;11.90;80.60
4840;DHT22;2434;48.486;7.964;2022-09-30T04:15:41;11.80;80.70
4840;DHT22;2434;48.486;7.964;2022-09-30T04:18:09;11.80;81.40
4840;DHT22;2434;48.486;7.964;2022-09-30T04:20:37;11.90;81.50
4840;DHT22;2434;48.486;7.964;2022-09-30T04:23:06;11.80;81.60
4840;DHT22;2434;48.486;7.964;2022-09-30T04:25:35;11.80;81.50
4840;DHT22;2434;48.486;7.964;2022-09-30T04:28:04;11.80;81.80
4840;DHT22;2434;48.486;7.964;2022-09-30T04:30:32;11.80;81.80
4840;DHT22;2434;48.486;7.964;2022-09-30T04:33:00;11.80;81.50
4840;DHT22;2434;48.486;7.964;2022-09-30T04:35:28;11.80;81.70
4840;DHT22;2434;48.486;7.964;2022-09-30T04:37:56;11.80;82.50
4840;DHT22;2434;48.486;7.964;2022-09-30T04:40:24;11.80;82.00
4840;DHT22;2434;48.486;7.964;2022-09-30T04:42:56;11.80;81.90
4840;DHT22;2434;48.486;7.964;2022-09-30T04:45:24;11.70;81.60
4840;DHT22;2434;48.486;7.964;2022-09-30T04:47:52;11.70;81.50
4840;DHT22;2434;48.486;7.964;2022-09-30T04:50:20;11.70;79.90
4840;DHT22;2434;48.486;7.964;2022-09-30T04:52:49;11.80;79.50
4840;DHT22;2434;48.486;7.964;2022-09-30T04:55:17;11.80;80.00
4840;DHT22;2434;48.486;7.964;2022-09-30T04:57:45;11.80;80.00
4840;DHT22;2434;48.486;7.964;2022-09-30T05:00:15;11.60;79.60
4840;DHT22;2434;48.486;7.964;2022-09-30T05:02:43;11.10;84.20
4840;DHT22;2434;48.486;7.964;2022-09-30T05:05:11;11.20;84.10
4840;DHT22;2434;48.486;7.964;2022-09-30T05:07:39;11.20;83.50
4840;DHT22;2434;48.486;7.964;2022-09-30T05:10:08;11.30;83.80
4840;DHT22;2434;48.486;7.964;2022-09-30T05:12:37;11.10;84.90
4840;DHT22;2434;48.486;7.964;2022-09-30T05:15:08;10.50;90.00
4840;DHT22;2434;48.486;7.964;2022-09-30T05:17:38;10.30;90.90
4840;DHT22;2434;48.486;7.964;2022-09-30T05:20:06;10.50;91.00
4840;DHT22;2434;48.486;7.964;2022-09-30T05:22:36;10.90;88.20
4840;DHT22;2434;48.486;7.964;2022-09-30T05:25:06;10.90;87.60
4840;DHT22;2434;48.486;7.964;2022-09-30T05:27:34;11.20;85.00
4840;DHT22;2434;48.486;7.964;2022-09-30T05:30:03;11.30;83.90
4840;DHT22;2434;48.486;7.964;2022-09-30T05:32:32;11.50;83.70
4840;DHT22;2434;48.486;7.964;2022-09-30T05:35:02;11.20;83.00
4840;DHT22;2434;48.486;7.964;2022-09-30T05:37:30;11.20;84.80
4840;DHT22;2434;48.486;7.964;2022-09-30T05:39:58;10.80;88.10
4840;DHT22;2434;48.486;7.964;2022-09-30T05:42:26;10.60;90.10
4840;DHT22;2434;48.486;7.964;2022-09-30T05:44:54;10.50;91.20
4840;DHT22;2434;48.486;7.964;2022-09-30T05:47:23;10.70;90.80
4840;DHT22;2434;48.486;7.964;2022-09-30T05:49:51;10.60;90.50
4840;DHT22;2434;48.486;7.964;2022-09-30T05:52:23;10.40;92.50
4840;DHT22;2434;48.486;7.964;2022-09-30T05:54:51;10.30;94.10
4840;DHT22;2434;48.486;7.964;2022-09-30T05:57:20;10.40;94.70
4840;DHT22;2434;48.486;7.964;2022-09-30T05:59:48;10.50;94.40
4840;DHT22;2434;48.486;7.964;2022-09-30T06:02:16;10.40;94.10
4840;DHT22;2434;48.486;7.964;2022-09-30T06:04:45;10.20;94.80
4840;DHT22;2434;48.486;7.964;2022-09-30T06:07:13;10.00;95.90
4840;DHT22;2434;48.486;7.964;2022-09-30T06:09:42;10.00;96.60
4840;DHT22;2434;48.486;7.964;2022-09-30T06:12:11;10.00;96.90
4840;DHT22;2434;48.486;7.964;2022-09-30T06:14:40;10.10;96.60
4840;DHT22;2434;48.486;7.964;2022-09-30T06:17:08;10.10;96.40
4840;DHT22;2434;48.486;7.964;2022-09-30T06:19:36;10.20;96.60
4840;DHT22;2434;48.486;7.964;2022-09-30T06:22:04;10.40;97.40
4840;DHT22;2434;48.486;7.964;2022-09-30T06:24:32;10.60;94.30
4840;DHT22;2434;48.486;7.964;2022-09-30T06:27:02;10.80;91.70
4840;DHT22;2434;48.486;7.964;2022-09-30T06:29:30;10.90;90.50
4840;DHT22;2434;48.486;7.964;2022-09-30T06:31:58;11.10;90.20
4840;DHT22;2434;48.486;7.964;2022-09-30T06:34:27;10.80;89.50
4840;DHT22;2434;48.486;7.964;2022-09-30T06:36:55;10.90;90.10
4840;DHT22;2434;48.486;7.964;2022-09-30T06:39:23;11.10;88.40
4840;DHT22;2434;48.486;7.964;2022-09-30T06:41:53;11.20;87.40
4840;DHT22;2434;48.486;7.964;2022-09-30T06:44:26;11.40;86.90
4840;DHT22;2434;48.486;7.964;2022-09-30T06:46:54;11.50;87.40
4840;DHT22;2434;48.486;7.964;2022-09-30T06:49:22;11.50;85.80
4840;DHT22;2434;48.486;7.964;2022-09-30T06:51:51;11.60;85.20
4840;DHT22;2434;48.486;7.964;2022-09-30T06:54:19;11.40;85.10
4840;DHT22;2434;48.486;7.964;2022-09-30T06:56:47;11.20;88.00
4840;DHT22;2434;48.486;7.964;2022-09-30T06:59:17;11.10;89.60
4840;DHT22;2434;48.486;7.964;2022-09-30T07:01:47;11.20;88.10
4840;DHT22;2434;48.486;7.964;2022-09-30T07:04:16;11.40;87.10
4840;DHT22;2434;48.486;7.964;2022-09-30T07:06:44;11.50;86.00
4840;DHT22;2434;48.486;7.964;2022-09-30T07:09:12;11.30;87.20
4840;DHT22;2434;48.486;7.964;2022-09-30T07:11:40;11.10;87.70
4840;DHT22;2434;48.486;7.964;2022-09-30T07:14:09;10.80;90.20
4840;DHT22;2434;48.486;7.964;2022-09-30T07:16:39;10.60;91.60
4840;DHT22;2434;48.486;7.964;2022-09-30T07:19:09;10.70;92.50
4840;DHT22;2434;48.486;7.964;2022-09-30T07:21:37;10.80;91.90
4840;DHT22;2434;48.486;7.964;2022-09-30T07:24:06;11.10;89.60
4840;DHT22;2434;48.486;7.964;2022-09-30T07:26:35;11.20;88.90
4840;DHT22;2434;48.486;7.964;2022-09-30T07:29:03;11.30;87.60
4840;DHT22;2434;48.486;7.964;2022-09-30T07:31:33;11.40;87.00
4840;DHT22;2434;48.486;7.964;2022-09-30T07:34:03;10.90;87.50
4840;DHT22;2434;48.486;7.964;2022-09-30T07:36:35;10.60;91.60
4840;DHT22;2434;48.486;7.964;2022-09-30T07:39:06;10.90;91.30
4840;DHT22;2434;48.486;7.964;2022-09-30T07:41:37;10.90;90.50
4840;DHT22;2434;48.486;7.964;2022-09-30T07:44:08;10.80;91.40
4840;DHT22;2434;48.486;7.964;2022-09-30T07:46:38;11.10;89.30
4840;DHT22;2434;48.486;7.964;2022-09-30T07:49:09;10.70;90.10
4840;DHT22;2434;48.486;7.964;2022-09-30T07:51:42;10.60;90.40
4840;DHT22;2434;48.486;7.964;2022-09-30T07:54:13;10.50;92.60
4840;DHT22;2434;48.486;7.964;2022-09-30T07:56:41;10.70;92.50
4840;DHT22;2434;48.486;7.964;2022-09-30T07:59:31;10.90;90.50
4840;DHT22;2434;48.486;7.964;2022-09-30T08:02:00;10.80;90.60
4840;DHT22;2434;48.486;7.964;2022-09-30T08:04:28;10.60;92.10
4840;DHT22;2434;48.486;7.964;2022-09-30T08:06:59;10.40;92.10
4840;DHT22;2434;48.486;7.964;2022-09-30T08:09:28;10.30;92.90
4840;DHT22;2434;48.486;7.964;2022-09-30T08:11:57;10.30;94.10
4840;DHT22;2434;48.486;7.964;2022-09-30T08:14:26;10.50;94.40
4840;DHT22;2434;48.486;7.964;2022-09-30T08:16:54;10.70;92.90
4840;DHT22;2434;48.486;7.964;2022-09-30T08:19:25;10.50;90.60
4840;DHT22;2434;48.486;7.964;2022-09-30T08:21:54;10.60;91.40
4840;DHT22;2434;48.486;7.964;2022-09-30T08:24:25;10.70;91.00
4840;DHT22;2434;48.486;7.964;2022-09-30T08:26:54;10.70;90.30
4840;DHT22;2434;48.486;7.964;2022-09-30T08:29:22;10.80;91.00
4840;DHT22;2434;48.486;7.964;2022-09-30T08:32:11;10.80;89.40
4840;DHT22;2434;48.486;7.964;2022-09-30T08:34:39;11.00;89.40
4840;DHT22;2434;48.486;7.964;2022-09-30T08:37:07;10.80;89.20
4840;DHT22;2434;48.486;7.964;2022-09-30T08:39:37;10.70;89.60
4840;DHT22;2434;48.486;7.964;2022-09-30T08:42:24;10.60;91.10
4840;DHT22;2434;48.486;7.964;2022-09-30T08:45:16;10.50;90.30
4840;DHT22;2434;48.486;7.964;2022-09-30T08:47:50;10.40;91.10
4840;DHT22;2434;48.486;7.964;2022-09-30T08:50:25;10.40;91.20
4840;DHT22;2434;48.486;7.964;2022-09-30T08:52:59;10.40;91.10
4840;DHT22;2434;48.486;7.964;2022-09-30T08:55:36;10.60;91.00
4840;DHT22;2434;48.486;7.964;2022-09-30T08:58:14;10.80;90.40
4840;DHT22;2434;48.486;7.964;2022-09-30T09:00:43;10.90;89.20
4840;DHT22;2434;48.486;7.964;2022-09-30T09:03:12;11.00;88.40
4840;DHT22;2434;48.486;7.964;2022-09-30T09:05:49;11.30;87.60
4840;DHT22;2434;48.486;7.964;2022-09-30T09:08:27;11.20;86.90
4840;DHT22;2434;48.486;7.964;2022-09-30T09:11:02;11.40;86.20
4840;DHT22;2434;48.486;7.964;2022-09-30T09:13:47;11.50;85.50
4840;DHT22;2434;48.486;7.964;2022-09-30T09:16:22;11.60;85.00
4840;DHT22;2434;48.486;7.964;2022-09-30T09:18:57;11.60;83.90
4840;DHT22;2434;48.486;7.964;2022-09-30T09:21:37;11.10;87.20
4840;DHT22;2434;48.486;7.964;2022-09-30T09:24:13;11.00;88.10
4840;DHT22;2434;48.486;7.964;2022-09-30T09:26:46;11.10;87.80
4840;DHT22;2434;48.486;7.964;2022-09-30T09:29:24;11.00;87.50
4840;DHT22;2434;48.486;7.964;2022-09-30T09:31:54;11.10;88.00
4840;DHT22;2434;48.486;7.964;2022-09-30T09:34:25;11.20;88.80
4840;DHT22;2434;48.486;7.964;2022-09-30T09:37:04;11.10;87.90
4840;DHT22;2434;48.486;7.964;2022-09-30T09:39:54;11.00;88.00
4840;DHT22;2434;48.486;7.964;2022-09-30T09:42:54;11.00;87.90
4840;DHT22;2434;48.486;7.964;2022-09-30T09:45:29;10.90;87.50
4840;DHT22;2434;48.486;7.964;2022-09-30T09:48:05;11.00;87.00
4840;DHT22;2434;48.486;7.964;2022-09-30T09:50:40;11.10;87.50
4840;DHT22;2434;48.486;7.964;2022-09-30T09:53:36;11.20;87.00
4840;DHT22;2434;48.486;7.964;2022-09-30T09:56:12;11.30;86.20
4840;DHT22;2434;48.486;7.964;2022-09-30T09:59:07;11.30;85.30
4840;DHT22;2434;48.486;7.964;2022-09-30T10:01:40;11.30;85.50
4840;DHT22;2434;48.486;7.964;2022-09-30T10:04:17;11.20;86.10
4840;DHT22;2434;48.486;7.964;2022-09-30T10:06:52;11.50;86.90
4840;DHT22;2434;48.486;7.964;2022-09-30T10:09:24;11.50;84.10
4840;DHT22;2434;48.486;7.964;2022-09-30T10:12:17;11.20;84.80
4840;DHT22;2434;48.486;7.964;2022-09-30T10:14:53;11.20;85.80
4840;DHT22;2434;48.486;7.964;2022-09-30T10:17:26;11.20;86.20
4840;DHT22;2434;48.486;7.964;2022-09-30T10:20:06;11.20;84.70
4840;DHT22;2434;48.486;7.964;2022-09-30T10:22:35;11.30;85.10
4840;DHT22;2434;48.486;7.964;2022-09-30T10:25:21;11.30;84.50
4840;DHT22;2434;48.486;7.964;2022-09-30T10:27:53;11.30;85.60
4840;DHT22;2434;48.486;7.964;2022-09-30T10:30:42;11.50;85.20
4840;DHT22;2434;48.486;7.964;2022-09-30T10:33:15;11.50;84.30
4840;DHT22;2434;48.486;7.964;2022-09-30T10:35:59;11.50;83.40
4840;DHT22;2434;48.486;7.964;2022-09-30T10:38:28;11.30;83.70
4840;DHT22;2434;48.486;7.964;2022-09-30T10:40:58;11.40;83.40
4840;DHT22;2434;48.486;7.964;2022-09-30T10:43:33;11.60;85.20
4840;DHT22;2434;48.486;7.964;2022-09-30T10:46:04;11.70;83.70
4840;DHT22;2434;48.486;7.964;2022-09-30T10:48:55;11.80;82.60
4840;DHT22;2434;48.486;7.964;2022-09-30T10:51:30;11.70;81.30
4840;DHT22;2434;48.486;7.964;2022-09-30T10:54:01;11.70;82.60
4840;DHT22;2434;48.486;7.964;2022-09-30T10:56:44;11.90;85.40
4840;DHT22;2434;48.486;7.964;2022-09-30T10:59:26;12.20;85.60
4840;DHT22;2434;48.486;7.964;2022-09-30T11:02:03;12.40;83.90
4840;DHT22;2434;48.486;7.964;2022-09-30T11:04:39;12.10;78.40
4840;DHT22;2434;48.486;7.964;2022-09-30T11:07:14;12.30;82.10
4840;DHT22;2434;48.486;7.964;2022-09-30T11:09:49;12.40;81.80
4840;DHT22;2434;48.486;7.964;2022-09-30T11:12:24;12.40;80.70
4840;DHT22;2434;48.486;7.964;2022-09-30T11:15:02;12.40;81.00
4840;DHT22;2434;48.486;7.964;2022-09-30T11:17:39;12.40;80.60
4840;DHT22;2434;48.486;7.964;2022-09-30T11:20:16;12.40;81.20
4840;DHT22;2434;48.486;7.964;2022-09-30T11:22:51;12.40;81.10
4840;DHT22;2434;48.486;7.964;2022-09-30T11:25:25;12.50;82.10
4840;DHT22;2434;48.486;7.964;2022-09-30T11:28:10;12.60;79.80
4840;DHT22;2434;48.486;7.964;2022-09-30T11:30:51;12.70;79.80
4840;DHT22;2434;48.486;7.964;2022-09-30T11:33:34;12.80;75.90
4840;DHT22;2434;48.486;7.964;2022-09-30T11:36:15;12.80;79.10
4840;DHT22;2434;48.486;7.964;2022-09-30T11:39:16;13.10;78.00
4840;DHT22;2434;48.486;7.964;2022-09-30T11:41:49;13.40;78.40
4840;DHT22;2434;48.486;7.964;2022-09-30T11:44:28;13.70;77.20
4840;DHT22;2434;48.486;7.964;2022-09-30T11:47:23;13.90;75.70
4840;DHT22;2434;48.486;7.964;2022-09-30T11:50:06;13.90;74.80
4840;DHT22;2434;48.486;7.964;2022-09-30T11:52:44;14.10;71.70
4840;DHT22;2434;48.486;7.964;2022-09-30T11:55:26;13.50;70.40
4840;DHT22;2434;48.486;7.964;2022-09-30T11:58:03;13.50;74.00
4840;DHT22;2434;48.486;7.964;2022-09-30T12:00:56;13.50;72.10
4840;DHT22;2434;48.486;7.964;2022-09-30T12:03:29;13.40;73.20
4840;DHT22;2434;48.486;7.964;2022-09-30T12:06:09;13.40;73.70
4840;DHT22;2434;48.486;7.964;2022-09-30T12:08:43;13.60;76.00
4840;DHT22;2434;48.486;7.964;2022-09-30T12:11:17;13.70;73.30
4840;DHT22;2434;48.486;7.964;2022-09-30T12:13:51;13.70;71.50
4840;DHT22;2434;48.486;7.964;2022-09-30T12:16:23;13.60;71.20
4840;DHT22;2434;48.486;7.964;2022-09-30T12:18:56;13.80;72.60
4840;DHT22;2434;48.486;7.964;2022-09-30T12:21:30;13.80;71.30
4840;DHT22;2434;48.486;7.964;2022-09-30T12:24:03;14.00;73.00
4840;DHT22;2434;48.486;7.964;2022-09-30T12:26:34;14.00;64.50
4840;DHT22;2434;48.486;7.964;2022-09-30T12:29:05;14.00;65.00
4840;DHT22;2434;48.486;7.964;2022-09-30T12:35:07;14.10;62.50
4840;DHT22;2434;48.486;7.964;2022-09-30T12:37:55;14.10;60.90
4840;DHT22;2434;48.486;7.964;2022-09-30T12:40:42;14.00;61.30
4840;DHT22;2434;48.486;7.964;2022-09-30T12:46:22;14.20;60.00
4840;DHT22;2434;48.486;7.964;2022-09-30T12:48:53;14.30;61.70
4840;DHT22;2434;48.486;7.964;2022-09-30T12:51:28;14.60;67.30
4840;DHT22;2434;48.486;7.964;2022-09-30T12:54:01;15.20;64.60
4840;DHT22;2434;48.486;7.964;2022-09-30T12:56:33;15.40;57.60
4840;DHT22;2434;48.486;7.964;2022-09-30T12:59:03;15.20;58.40
4840;DHT22;2434;48.486;7.964;2022-09-30T13:01:35;14.90;55.50
4840;DHT22;2434;48.486;7.964;2022-09-30T13:04:16;14.70;56.30
4840;DHT22;2434;48.486;7.964;2022-09-30T13:07:05;14.70;57.80
4840;DHT22;2434;48.486;7.964;2022-09-30T13:09:36;14.80;57.70
4840;DHT22;2434;48.486;7.964;2022-09-30T13:12:15;14.90;56.00
4840;DHT22;2434;48.486;7.964;2022-09-30T13:15:22;14.90;55.30
4840;DHT22;2434;48.486;7.964;2022-09-30T13:21:21;15.00;56.30
4840;DHT22;2434;48.486;7.964;2022-09-30T13:23:51;15.10;55.60
4840;DHT22;2434;48.486;7.964;2022-09-30T13:26:36;15.10;54.00
4840;DHT22;2434;48.486;7.964;2022-09-30T13:32:10;15.20;56.80
4840;DHT22;2434;48.486;7.964;2022-09-30T13:34:55;15.50;55.60
4840;DHT22;2434;48.486;7.964;2022-09-30T13:37:36;15.40;49.90
4840;DHT22;2434;48.486;7.964;2022-09-30T13:40:19;15.40;50.70
4840;DHT22;2434;48.486;7.964;2022-09-30T13:43:13;15.40;50.40
4840;DHT22;2434;48.486;7.964;2022-09-30T13:45:44;15.20;51.20
4840;DHT22;2434;48.486;7.964;2022-09-30T13:48:18;15.20;50.70
4840;DHT22;2434;48.486;7.964;2022-09-30T13:50:50;15.30;55.40
4840;DHT22;2434;48.486;7.964;2022-09-30T13:53:23;15.70;54.80
4840;DHT22;2434;48.486;7.964;2022-09-30T13:55:55;16.10;52.80
4840;DHT22;2434;48.486;7.964;2022-09-30T13:58:56;15.90;49.90
4840;DHT22;2434;48.486;7.964;2022-09-30T14:01:42;16.10;49.30
4840;DHT22;2434;48.486;7.964;2022-09-30T14:04:42;16.10;47.20
4840;DHT22;2434;48.486;7.964;2022-09-30T14:07:23;15.90;51.20
4840;DHT22;2434;48.486;7.964;2022-09-30T14:10:07;16.00;49.80
4840;DHT22;2434;48.486;7.964;2022-09-30T14:12:54;15.80;49.80
4840;DHT22;2434;48.486;7.964;2022-09-30T14:15:45;15.80;48.50
4840;DHT22;2434;48.486;7.964;2022-09-30T14:21:32;15.90;47.40
4840;DHT22;2434;48.486;7.964;2022-09-30T14:24:08;16.10;48.70
4840;DHT22;2434;48.486;7.964;2022-09-30T14:26:47;15.90;50.30
4840;DHT22;2434;48.486;7.964;2022-09-30T14:29:23;16.00;51.90
4840;DHT22;2434;48.486;7.964;2022-09-30T14:31:53;16.10;52.90
4840;DHT22;2434;48.486;7.964;2022-09-30T14:34:23;16.50;53.00
4840;DHT22;2434;48.486;7.964;2022-09-30T14:36:53;16.80;50.50
4840;DHT22;2434;48.486;7.964;2022-09-30T14:39:26;16.60;48.20
4840;DHT22;2434;48.486;7.964;2022-09-30T14:41:57;16.90;49.90
4840;DHT22;2434;48.486;7.964;2022-09-30T14:44:29;17.20;46.10
4840;DHT22;2434;48.486;7.964;2022-09-30T14:47:00;17.10;43.40
4840;DHT22;2434;48.486;7.964;2022-09-30T14:49:31;17.40;45.00
4840;DHT22;2434;48.486;7.964;2022-09-30T14:52:04;17.70;42.90
4840;DHT22;2434;48.486;7.964;2022-09-30T14:54:33;17.00;41.70
4840;DHT22;2434;48.486;7.964;2022-09-30T14:57:12;16.70;40.60
4840;DHT22;2434;48.486;7.964;2022-09-30T14:59:42;16.30;40.30
4840;DHT22;2434;48.486;7.964;2022-09-30T15:02:13;16.40;43.80
4840;DHT22;2434;48.486;7.964;2022-09-30T15:04:48;16.90;45.50
4840;DHT22;2434;48.486;7.964;2022-09-30T15:07:18;16.50;42.30
4840;DHT22;2434;48.486;7.964;2022-09-30T15:09:47;16.70;47.60
4840;DHT22;2434;48.486;7.964;2022-09-30T15:12:18;16.40;45.40
4840;DHT22;2434;48.486;7.964;2022-09-30T15:14:50;16.20;44.50
4840;DHT22;2434;48.486;7.964;2022-09-30T15:17:19;16.00;46.00
4840;DHT22;2434;48.486;7.964;2022-09-30T15:19:47;16.20;50.80
4840;DHT22;2434;48.486;7.964;2022-09-30T15:22:18;16.20;45.30
4840;DHT22;2434;48.486;7.964;2022-09-30T15:24:49;16.00;44.70
4840;DHT22;2434;48.486;7.964;2022-09-30T15:27:20;16.10;45.30
4840;DHT22;2434;48.486;7.964;2022-09-30T15:29:56;16.10;45.40
4840;DHT22;2434;48.486;7.964;2022-09-30T15:32:26;16.00;43.60
4840;DHT22;2434;48.486;7.964;2022-09-30T15:34:55;15.90;46.30
4840;DHT22;2434;48.486;7.964;2022-09-30T15:37:26;15.90;46.00
4840;DHT22;2434;48.486;7.964;2022-09-30T15:40:01;15.90;48.00
4840;DHT22;2434;48.486;7.964;2022-09-30T15:42:55;15.90;49.90
4840;DHT22;2434;48.486;7.964;2022-09-30T15:45:28;16.10;52.70
4840;DHT22;2434;48.486;7.964;2022-09-30T15:48:03;16.00;49.80
4840;DHT22;2434;48.486;7.964;2022-09-30T15:50:39;15.90;49.60
4840;DHT22;2434;48.486;7.964;2022-09-30T15:53:16;15.90;48.90
4840;DHT22;2434;48.486;7.964;2022-09-30T15:55:50;15.90;50.20
4840;DHT22;2434;48.486;7.964;2022-09-30T15:58:33;15.90;50.50
4840;DHT22;2434;48.486;7.964;2022-09-30T16:01:12;16.10;50.90
4840;DHT22;2434;48.486;7.964;2022-09-30T16:03:48;16.00;49.30
4840;DHT22;2434;48.486;7.964;2022-09-30T16:06:21;15.80;47.90
4840;DHT22;2434;48.486;7.964;2022-09-30T16:08:54;15.80;49.70
4840;DHT22;2434;48.486;7.964;2022-09-30T16:11:30;15.70;47.50
4840;DHT22;2434;48.486;7.964;2022-09-30T16:14:01;15.60;48.40
4840;DHT22;2434;48.486;7.964;2022-09-30T16:16:32;15.70;51.90
4840;DHT22;2434;48.486;7.964;2022-09-30T16:19:03;16.10;54.30
4840;DHT22;2434;48.486;7.964;2022-09-30T16:21:41;15.90;47.80
4840;DHT22;2434;48.486;7.964;2022-09-30T16:24:45;15.90;51.50
4840;DHT22;2434;48.486;7.964;2022-09-30T16:27:27;16.30;52.60
4840;DHT22;2434;48.486;7.964;2022-09-30T16:29:58;16.60;51.50
4840;DHT22;2434;48.486;7.964;2022-09-30T16:32:30;16.50;51.30
4840;DHT22;2434;48.486;7.964;2022-09-30T16:34:59;16.60;50.90
4840;DHT22;2434;48.486;7.964;2022-09-30T16:37:27;16.80;50.50
4840;DHT22;2434;48.486;7.964;2022-09-30T16:40:00;16.90;50.20
4840;DHT22;2434;48.486;7.964;2022-09-30T16:42:34;16.90;51.00
4840;DHT22;2434;48.486;7.964;2022-09-30T16:45:02;17.00;51.40
4840;DHT22;2434;48.486;7.964;2022-09-30T16:47:32;17.00;51.20
4840;DHT22;2434;48.486;7.964;2022-09-30T16:50:00;17.00;51.90
4840;DHT22;2434;48.486;7.964;2022-09-30T16:52:28;16.90;52.20
4840;DHT22;2434;48.486;7.964;2022-09-30T16:54:58;16.90;52.20
4840;DHT22;2434;48.486;7.964;2022-09-30T16:57:26;16.90;51.60
4840;DHT22;2434;48.486;7.964;2022-09-30T16:59:55;16.80;52.40
4840;DHT22;2434;48.486;7.964;2022-09-30T17:02:23;16.80;51.80
4840;DHT22;2434;48.486;7.964;2022-09-30T17:04:52;16.70;53.30
4840;DHT22;2434;48.486;7.964;2022-09-30T17:07:20;16.70;53.60